Weather History for KPPO - September, 2014

Change the Weather History Date:

Thursday, September 11, 2014

  Actual Average (KVPZ) Record (KVPZ)
Temperature  
Mean Temperature 54 °F 65 °F  
Max Temperature 56 °F 76 °F 97 °F (2013)
Min Temperature 50 °F 55 °F 46 °F (1999)
Degree Days  
Heating Degree Days 12 2  
Month to date heating degree days 17  
Since 1 July heating degree days 34  
Cooling Degree Days 0 3  
Month to date cooling degree days 39  
Year to date cooling degree days 675  
Growing Degree Days 4 (Base 50)    
Moisture  
Dew Point 51 °F    
Average Humidity 91    
Maximum Humidity 100    
Minimum Humidity 81    
Precipitation  
Precipitation 0.00 in 0.10 in 1.34 in (2000)
Month to date precipitation 1.35  
Year to date precipitation 26.89  
Sea Level Pressure  
Sea Level Pressure 30.10 in    
Wind  
Wind Speed 11 mph (NNW)    
Max Wind Speed 17 mph    
Max Gust Speed 28 mph    
Visibility 9 miles    
Events Rain    
T = Trace of Precipitation, MM = Missing Value Source: NWS Daily Summary

Daily Weather History Graph

Daily Weather History Graph

Search for Another Location

Airport or City:

Trip Planner

Search our weather history database for the weather conditions in past years. The results will help you decide how hot, cold, wet, or windy it might be!

Date:

Astronomy

Sep. 11, 2014 Rise Set
Actual Time 6:23 AM CDT 7:03 PM CDT
Civil Twilight 5:55 AM CDT 7:31 PM CDT
Nautical Twilight 5:22 AM CDT 8:04 PM CDT
Astronomical Twilight 4:47 AM CDT 8:38 PM CDT
Moon 8:38 PM CDT (9/11) 9:22 AM CDT (9/11)
Length of Visible Light 13h 35m
Length of Day
12h 39m
Waning Gibbous, 90% of the Moon is Illuminated
Sep 11
Waning Gibbous
Sep 15
Last Quarter
Sep 24
New
Oct 1
First Quarter
Oct 8
Full

Hourly Weather History & Observations

Time (CDT) Temp. Dew Point Humidity Pressure Visibility Wind Dir Wind Speed Gust Speed Precip Events Conditions
12:15 AM 57.6 °F 56.3 °F 96% 29.86 in 5.0 mi NNW 13.8 mph 27.6 mph N/A   Light Drizzle
12:35 AM 57.2 °F 56.1 °F 96% 29.87 in 10.0 mi NNW 16.1 mph 23.0 mph N/A   Light Drizzle
12:55 AM 56.5 °F 54.9 °F 94% 29.88 in 10.0 mi NNW 16.1 mph 21.9 mph N/A   Overcast
1:15 AM 55.9 °F 54.0 °F 93% 29.88 in 10.0 mi NNW 12.7 mph 23.0 mph N/A   Overcast
1:35 AM 55.6 °F 53.8 °F 94% 29.89 in 7.0 mi NNW 12.7 mph 23.0 mph N/A   Overcast
1:55 AM 54.9 °F 54.5 °F 99% 29.89 in 5.0 mi NNW 11.5 mph 16.1 mph N/A   Overcast
2:15 AM 54.7 °F 54.7 °F 100% 29.90 in 5.0 mi NNW 12.7 mph - N/A   Overcast
2:35 AM 54.5 °F 54.5 °F 100% 29.91 in 7.0 mi NNW 15.0 mph 19.6 mph N/A   Light Drizzle
2:55 AM 54.5 °F 54.5 °F 100% 29.92 in 10.0 mi NW 10.4 mph - N/A   Overcast
3:15 AM 54.5 °F 54.0 °F 98% 29.93 in 7.0 mi North 11.5 mph 16.1 mph N/A   Light Drizzle
3:35 AM 54.1 °F 53.6 °F 98% 29.94 in 7.0 mi NNW 11.5 mph 20.7 mph N/A   Overcast
3:55 AM 54.0 °F 53.6 °F 99% 29.94 in 7.0 mi NNW 10.4 mph - N/A   Overcast
4:15 AM 54.1 °F 52.5 °F 94% 29.95 in 10.0 mi NNW 13.8 mph - N/A   Overcast
4:35 AM 54.0 °F 52.2 °F 94% 29.96 in 10.0 mi NNW 8.1 mph - N/A   Overcast
4:55 AM 53.6 °F 52.0 °F 94% 29.96 in 10.0 mi NNW 11.5 mph 18.4 mph N/A   Overcast
5:35 AM 53.6 °F 51.8 °F 94% 29.99 in 10.0 mi NW 12.7 mph 18.4 mph N/A   Overcast
5:55 AM 53.2 °F 52.2 °F 96% 30.00 in 7.0 mi NNW 12.7 mph 18.4 mph N/A   Overcast
6:15 AM 53.2 °F 52.3 °F 97% 30.01 in 10.0 mi NNW 9.2 mph - N/A   Overcast
6:35 AM 53.2 °F 52.5 °F 97% 30.03 in 10.0 mi NW 9.2 mph - N/A   Overcast
6:55 AM 53.1 °F 52.2 °F 97% 30.04 in 5.0 mi NNW 9.2 mph - N/A   Overcast
7:15 AM 53.2 °F 51.8 °F 95% 30.04 in 10.0 mi NNW 11.5 mph - N/A   Overcast
7:35 AM 53.1 °F 52.0 °F 96% 30.06 in 4.0 mi NNW 8.1 mph - N/A   Overcast
7:55 AM 53.1 °F 51.8 °F 95% 30.06 in 4.0 mi NNW 11.5 mph - N/A Rain Rain
8:15 AM 52.9 °F 52.7 °F 99% 30.06 in 4.0 mi North 8.1 mph - N/A   Light Drizzle
8:35 AM 52.9 °F 52.5 °F 99% 30.07 in 5.0 mi NNW 10.4 mph - N/A   Overcast
8:55 AM 53.6 °F 51.4 °F 92% 30.08 in 10.0 mi NNW 12.7 mph 16.1 mph N/A   Overcast
9:15 AM 53.6 °F 50.4 °F 89% 30.08 in 10.0 mi NNW 9.2 mph - N/A   Overcast
9:35 AM 53.6 °F 50.2 °F 88% 30.09 in 10.0 mi NNW 6.9 mph - N/A   Overcast
9:55 AM 53.6 °F 49.8 °F 87% 30.10 in 10.0 mi North 12.7 mph 19.6 mph N/A   Overcast
10:15 AM 53.4 °F 50.0 °F 88% 30.11 in 10.0 mi North 11.5 mph 17.3 mph N/A   Overcast
10:35 AM 53.1 °F 50.4 °F 91% 30.11 in 10.0 mi North 9.2 mph 17.3 mph N/A   Overcast
10:55 AM 53.2 °F 50.9 °F 92% 30.13 in 7.0 mi North 9.2 mph - N/A   Overcast
11:15 AM 53.6 °F 50.4 °F 89% 30.14 in 10.0 mi NNW 11.5 mph 19.6 mph N/A   Overcast
11:35 AM 53.6 °F 50.0 °F 88% 30.13 in 10.0 mi North 11.5 mph 16.1 mph N/A   Overcast
11:55 AM 53.6 °F 49.6 °F 86% 30.14 in 7.0 mi NNW 12.7 mph 19.6 mph N/A   Overcast
12:15 PM 53.8 °F 49.5 °F 85% 30.14 in 10.0 mi NNW 11.5 mph 17.3 mph N/A   Overcast
12:35 PM 53.6 °F 49.8 °F 87% 30.15 in 10.0 mi NNW 12.7 mph 17.3 mph N/A   Overcast
12:55 PM 53.8 °F 49.5 °F 85% 30.15 in 10.0 mi North 16.1 mph - N/A   Overcast
1:15 PM 54.0 °F 48.9 °F 83% 30.15 in 10.0 mi North 15.0 mph - N/A   Overcast
1:35 PM 54.0 °F 48.7 °F 82% 30.15 in 10.0 mi NNW 12.7 mph - N/A   Overcast
1:55 PM 54.0 °F 48.6 °F 82% 30.15 in 10.0 mi NNW 17.3 mph 20.7 mph N/A   Overcast
2:15 PM 53.8 °F 49.1 °F 84% 30.16 in 10.0 mi NNW 10.4 mph 16.1 mph N/A   Overcast
2:35 PM 54.0 °F 49.1 °F 84% 30.16 in 10.0 mi NNW 11.5 mph - N/A   Overcast
2:55 PM 54.0 °F 49.1 °F 84% 30.16 in 10.0 mi North 10.4 mph - N/A   Overcast
3:15 PM 53.6 °F 49.1 °F 85% 30.16 in 10.0 mi NNW 10.4 mph - N/A   Overcast
3:35 PM 53.8 °F 49.1 °F 84% 30.15 in 10.0 mi NNW 8.1 mph - N/A   Overcast
3:55 PM 54.0 °F 49.5 °F 85% 30.16 in 10.0 mi NNW 9.2 mph - N/A   Overcast
4:15 PM 54.0 °F 49.1 °F 84% 30.16 in 10.0 mi North 9.2 mph 16.1 mph N/A   Overcast
4:35 PM 53.8 °F 49.3 °F 85% 30.17 in 7.0 mi NNW 11.5 mph - N/A   Overcast
4:55 PM 54.0 °F 49.3 °F 84% 30.17 in 10.0 mi North 15.0 mph - N/A   Overcast
5:15 PM 53.8 °F 49.5 °F 85% 30.18 in 10.0 mi North 8.1 mph - N/A   Overcast
5:35 PM 53.8 °F 49.1 °F 84% 30.18 in 10.0 mi NNW 9.2 mph - N/A   Overcast
5:55 PM 53.8 °F 48.6 °F 82% 30.18 in 10.0 mi North 12.7 mph 18.4 mph N/A   Overcast
6:15 PM 53.6 °F 47.8 °F 81% 30.19 in 10.0 mi North 8.1 mph - N/A   Overcast
6:35 PM 53.6 °F 48.2 °F 82% 30.19 in 10.0 mi North 9.2 mph - N/A   Overcast
6:55 PM 53.6 °F 48.2 °F 82% 30.19 in 10.0 mi North 9.2 mph 16.1 mph N/A   Overcast
7:15 PM 53.6 °F 48.2 °F 82% 30.19 in 10.0 mi North 6.9 mph - N/A   Overcast
7:35 PM 53.6 °F 48.2 °F 82% 30.20 in 10.0 mi North 6.9 mph - N/A   Overcast
7:55 PM 53.1 °F 49.1 °F 86% 30.21 in 10.0 mi NNW 4.6 mph - N/A   Overcast
8:15 PM 53.1 °F 49.3 °F 87% 30.22 in 10.0 mi North 6.9 mph - N/A   Overcast
8:35 PM 53.2 °F 48.6 °F 84% 30.22 in 10.0 mi NNW 4.6 mph - N/A   Overcast
8:55 PM 53.1 °F 48.6 °F 85% 30.22 in 10.0 mi NNW 5.8 mph - N/A   Overcast
9:15 PM 53.1 °F 49.1 °F 86% 30.22 in 10.0 mi Calm Calm - N/A   Overcast
9:35 PM 53.6 °F 49.1 °F 85% 30.22 in 10.0 mi NNW 4.6 mph - N/A   Overcast
9:55 PM 52.5 °F 50.2 °F 92% 30.23 in 7.0 mi NW 6.9 mph - N/A   Overcast
10:15 PM 52.7 °F 51.4 °F 95% 30.24 in 7.0 mi NNW 5.8 mph - N/A   Overcast
10:35 PM 52.7 °F 52.5 °F 99% 30.24 in 4.0 mi NE 4.6 mph - N/A   Overcast
10:55 PM 52.3 °F 52.3 °F 100% 30.25 in 4.0 mi North 3.5 mph - N/A   Drizzle
11:15 PM 52.0 °F 52.0 °F 100% 30.26 in 4.0 mi NE 9.2 mph - N/A Rain Heavy Rain
11:35 PM 50.9 °F 50.9 °F 100% 30.26 in 10.0 mi NE 4.6 mph - N/A   Overcast
11:55 PM 51.1 °F 51.1 °F 100% 30.26 in 10.0 mi Calm Calm - N/A   Overcast